Time;durP1;ratioP1;P1;durP2;ratioP2;P2;SDS_P1;SDS_P2;PMS_P1;PMS_P2;Temp;Humidity;BMP_temperature;BMP_pressure;BME280_temperature;BME280_humidity;BME280_pressure;Samples;Min_cycle;Max_cycle;Signal;HPM_P1;HPM_P2
2022/08/31 00:05:07;;;;;;;4.72;3.40;;;;;;;20.51;49.27;100593.63;4995056;28;20078;-76
2022/08/31 00:07:34;;;;;;;5.18;3.08;;;;;;;20.50;49.40;100594.59;5001270;28;20490;-79
2022/08/31 00:10:17;;;;;;;4.65;3.10;;;;;;;20.39;49.73;100590.16;5003962;28;20053;-78
2022/08/31 00:12:47;;;;;;;6.50;3.35;;;;;;;20.52;49.76;100603.41;5000313;28;20129;-78
2022/08/31 00:15:17;;;;;;;5.10;3.50;;;;;;;20.49;49.63;100606.34;4997943;28;20099;-76
2022/08/31 00:17:45;;;;;;;6.18;3.33;;;;;;;20.48;49.96;100605.50;5001374;28;20050;-78
2022/08/31 00:20:14;;;;;;;4.65;3.13;;;;;;;20.46;50.07;100604.75;4996585;28;20050;-78
2022/08/31 00:23:07;;;;;;;6.20;3.25;;;;;;;20.40;50.07;100596.38;5005441;28;20049;-79
2022/08/31 00:25:35;;;;;;;5.30;3.72;;;;;;;20.39;50.18;100603.59;4997880;28;20069;-76
2022/08/31 00:28:03;;;;;;;4.80;3.30;;;;;;;20.37;50.33;100602.88;5001994;28;20462;-75
2022/08/31 00:30:31;;;;;;;6.72;3.67;;;;;;;20.40;50.51;100609.84;4999825;28;20548;-77
2022/08/31 00:32:59;;;;;;;7.22;3.40;;;;;;;20.30;50.47;100593.59;4998428;28;20076;-77
2022/08/31 00:35:27;;;;;;;6.43;3.60;;;;;;;20.43;50.20;100614.97;4992245;28;20081;-77
2022/08/31 00:37:54;;;;;;;8.13;3.55;;;;;;;20.42;50.54;100614.09;5003886;28;20096;-77
2022/08/31 00:40:21;;;;;;;5.18;3.38;;;;;;;20.42;50.50;100611.41;5003630;28;20134;-78
2022/08/31 00:42:47;;;;;;;5.30;3.33;;;;;;;20.34;50.55;100603.09;5009927;28;20728;-77
2022/08/31 00:45:14;;;;;;;5.75;3.60;;;;;;;20.44;50.22;100611.28;5004721;28;20084;-77
2022/08/31 00:47:41;;;;;;;6.28;3.55;;;;;;;20.43;50.30;100613.13;5005509;28;20053;-78
2022/08/31 00:50:11;;;;;;;5.68;3.90;;;;;;;20.42;50.58;100611.41;4999604;28;20083;-76
2022/08/31 00:52:43;;;;;;;7.07;3.75;;;;;;;20.38;50.73;100612.66;5005326;28;20137;-74
2022/08/31 00:55:18;;;;;;;7.30;4.03;;;;;;;20.35;50.79;100615.56;5004923;28;20566;-78
2022/08/31 00:57:50;;;;;;;6.95;4.25;;;;;;;20.33;50.93;100602.22;5000521;28;20501;-77
2022/08/31 01:00:21;;;;;;;4.75;3.47;;;;;;;20.35;51.17;100606.63;5002174;28;20100;-77
2022/08/31 01:02:48;;;;;;;6.80;4.13;;;;;;;20.33;51.13;100594.16;5004454;28;20046;-77
2022/08/31 01:05:16;;;;;;;5.47;3.58;;;;;;;20.37;50.98;100600.19;4998700;28;20081;-77
2022/08/31 01:07:46;;;;;;;5.43;3.88;;;;;;;20.25;51.29;100575.16;5000005;28;20053;-77
2022/08/31 01:10:14;;;;;;;7.38;4.03;;;;;;;20.35;51.09;100599.41;5003790;28;20043;-75
2022/08/31 01:12:44;;;;;;;5.15;3.60;;;;;;;20.31;51.40;100598.81;5004184;28;20165;-76
2022/08/31 01:15:13;;;;;;;5.93;3.90;;;;;;;20.29;51.51;100586.50;5003754;28;20045;-76
2022/08/31 01:17:42;;;;;;;6.43;3.63;;;;;;;20.21;51.56;100584.44;5005612;28;21131;-76
2022/08/31 01:20:32;;;;;;;5.38;3.70;;;;;;;20.28;51.60;100596.41;5019023;28;20042;-73
2022/08/31 01:23:12;;;;;;;9.05;3.88;;;;;;;20.27;51.88;100599.22;5025691;28;20042;-74
2022/08/31 01:25:42;;;;;;;7.13;3.60;;;;;;;20.20;51.79;100593.50;5009382;28;20045;-78
2022/08/31 01:28:10;;;;;;;8.00;3.90;;;;;;;20.18;52.12;100599.97;5001472;28;20391;-77
2022/08/31 01:30:38;;;;;;;9.02;4.10;;;;;;;20.11;52.26;100590.75;5000812;28;20065;-74
2022/08/31 01:33:05;;;;;;;5.47;3.60;;;;;;;20.13;52.70;100603.06;5004515;28;20072;-78
2022/08/31 01:35:33;;;;;;;6.13;3.78;;;;;;;20.15;52.36;100600.22;5001335;28;20085;-77
2022/08/31 01:38:01;;;;;;;4.25;3.58;;;;;;;20.12;52.37;100600.50;5004418;28;20081;-77
2022/08/31 01:40:43;;;;;;;8.32;3.90;;;;;;;20.11;52.64;100614.94;5002500;28;20256;-76
2022/08/31 01:43:09;;;;;;;7.93;4.20;;;;;;;20.08;52.69;100604.44;5009932;28;20050;-78
2022/08/31 01:45:36;;;;;;;9.10;4.10;;;;;;;20.03;52.91;100606.63;5014846;28;20153;-74
2022/08/31 01:48:03;;;;;;;6.68;4.10;;;;;;;20.03;53.08;100603.94;5017942;28;20063;-75
2022/08/31 01:50:30;;;;;;;4.30;3.70;;;;;;;20.03;52.98;100606.63;5010842;28;20119;-76
2022/08/31 01:52:56;;;;;;;6.28;3.97;;;;;;;20.01;53.08;100611.28;5004029;28;20069;-75
2022/08/31 01:55:23;;;;;;;7.40;4.03;;;;;;;19.86;53.20;100579.31;5006265;28;20460;-78
2022/08/31 01:57:49;;;;;;;5.63;4.30;;;;;;;19.94;53.59;100602.91;5001258;28;20087;-74
2022/08/31 02:00:16;;;;;;;5.40;4.20;;;;;;;19.77;53.57;100579.25;5001830;28;20466;-78
2022/08/31 02:02:43;;;;;;;4.32;3.92;;;;;;;19.75;53.93;100579.38;5003104;28;20525;-78
2022/08/31 02:05:10;;;;;;;7.03;3.75;;;;;;;19.91;53.96;100611.19;4997602;28;20060;-78
2022/08/31 02:07:37;;;;;;;5.18;3.75;;;;;;;19.86;54.12;100599.97;4997147;28;20614;-76
2022/08/31 02:10:04;;;;;;;5.28;3.90;;;;;;;19.85;54.00;100600.94;5003068;28;20197;-76
2022/08/31 02:12:31;;;;;;;4.55;3.50;;;;;;;19.82;54.27;100604.75;5001773;28;20099;-77
2022/08/31 02:14:58;;;;;;;5.10;3.80;;;;;;;19.76;54.50;100585.59;4994635;28;20478;-77
2022/08/31 02:17:25;;;;;;;6.25;4.35;;;;;;;19.81;54.55;100594.13;4995769;28;20046;-75
2022/08/31 02:19:51;;;;;;;4.97;4.10;;;;;;;19.77;54.53;100593.53;4999815;28;20521;-76
2022/08/31 02:22:18;;;;;;;5.93;3.80;;;;;;;19.80;54.67;100601.34;5005102;28;20073;-76
2022/08/31 02:24:44;;;;;;;5.65;3.80;;;;;;;19.76;54.68;100599.88;4995837;28;20058;-77
2022/08/31 02:27:11;;;;;;;5.45;4.10;;;;;;;19.55;55.04;100570.25;4989241;28;20073;-75
2022/08/31 02:29:38;;;;;;;6.28;3.95;;;;;;;19.58;54.87;100580.75;4997429;28;20046;-75
2022/08/31 02:32:05;;;;;;;4.32;3.90;;;;;;;19.72;55.06;100608.31;5005486;28;20115;-76
2022/08/31 02:34:32;;;;;;;7.95;3.97;;;;;;;19.57;55.28;100588.91;5007216;28;20561;-77
2022/08/31 02:36:58;;;;;;;5.97;3.92;;;;;;;19.52;55.34;100583.91;5003223;28;20046;-79
2022/08/31 02:39:25;;;;;;;4.53;4.10;;;;;;;19.69;55.44;100619.31;5003961;28;20141;-78
2022/08/31 02:41:53;;;;;;;6.15;3.70;;;;;;;19.63;55.59;100612.63;5004046;28;20391;-78
2022/08/31 02:44:19;;;;;;;5.68;4.43;;;;;;;19.54;55.88;100598.06;5007425;28;20126;-78
2022/08/31 02:46:46;;;;;;;3.88;3.58;;;;;;;19.55;55.75;100598.94;5002862;28;20054;-78
2022/08/31 02:49:13;;;;;;;5.18;4.18;;;;;;;19.53;55.96;100606.25;5006131;28;20049;-78
2022/08/31 02:51:40;;;;;;;4.35;3.80;;;;;;;19.68;55.86;100628.34;5002695;28;20574;-76
2022/08/31 02:54:07;;;;;;;8.70;3.90;;;;;;;19.67;55.37;100626.66;5005861;28;20470;-76
2022/08/31 02:56:34;;;;;;;6.55;3.70;;;;;;;19.66;55.97;100625.81;5003787;28;20602;-75
2022/08/31 02:59:01;;;;;;;4.82;3.55;;;;;;;19.58;55.93;100621.03;5003542;28;20102;-78
2022/08/31 03:01:27;;;;;;;5.10;4.05;;;;;;;19.63;56.25;100626.03;5006427;28;20085;-78
2022/08/31 03:03:55;;;;;;;6.38;4.45;;;;;;;19.60;56.32;100632.50;5004277;28;20050;-74
2022/08/31 03:06:22;;;;;;;5.88;4.38;;;;;;;19.48;56.43;100613.81;5001588;28;20050;-78
2022/08/31 03:08:49;;;;;;;6.88;4.30;;;;;;;19.51;56.23;100621.66;5003523;28;20050;-78
2022/08/31 03:11:17;;;;;;;6.10;4.10;;;;;;;19.60;55.99;100627.13;5000742;28;20105;-75
2022/08/31 03:13:43;;;;;;;5.53;3.97;;;;;;;19.59;56.52;100625.44;5001730;28;20073;-78
2022/08/31 03:16:12;;;;;;;4.53;4.03;;;;;;;19.55;56.46;100620.41;5005479;28;20126;-78
2022/08/31 03:18:39;;;;;;;5.03;3.83;;;;;;;19.42;56.76;100607.09;5003815;28;20502;-78
2022/08/31 03:21:06;;;;;;;6.43;4.10;;;;;;;19.33;56.84;100594.44;5002985;28;20156;-72
2022/08/31 03:23:32;;;;;;;4.30;3.80;;;;;;;19.36;57.12;100604.06;5001459;28;20073;-76
2022/08/31 03:25:59;;;;;;;6.97;3.85;;;;;;;19.48;57.15;100621.88;5004221;28;20106;-78
2022/08/31 03:28:26;;;;;;;7.38;3.97;;;;;;;19.35;57.22;100603.22;5002319;28;20103;-75
2022/08/31 03:30:52;;;;;;;5.22;4.05;;;;;;;19.38;57.32;100610.16;5004290;28;20138;-77
2022/08/31 03:33:19;;;;;;;9.88;4.15;;;;;;;19.42;56.94;100600.88;5006270;28;20042;-77
2022/08/31 03:35:46;;;;;;;6.55;4.20;;;;;;;19.47;56.77;100609.41;5000486;28;20142;-77
2022/08/31 03:38:14;;;;;;;6.47;4.20;;;;;;;19.38;56.98;100602.09;5004306;28;20073;-76
2022/08/31 03:40:42;;;;;;;5.03;4.25;;;;;;;19.51;57.00;100624.34;5004261;28;20058;-76
2022/08/31 03:43:10;;;;;;;5.05;3.88;;;;;;;19.46;57.08;100613.09;4999371;28;20068;-74
2022/08/31 03:45:39;;;;;;;6.07;4.20;;;;;;;19.53;57.22;100625.06;5003978;28;20049;-74
2022/08/31 03:48:06;;;;;;;4.53;4.00;;;;;;;19.52;57.17;100634.94;5004846;28;20069;-76
2022/08/31 03:50:38;;;;;;;4.88;4.28;;;;;;;19.47;57.46;100626.41;5000270;28;20517;-77
2022/08/31 03:53:06;;;;;;;6.47;4.28;;;;;;;19.50;57.22;100634.25;5005468;28;20058;-76
2022/08/31 03:55:35;;;;;;;6.82;3.95;;;;;;;19.38;57.29;100610.16;5004561;28;20057;-77
2022/08/31 03:58:03;;;;;;;7.65;3.80;;;;;;;19.48;57.51;100638.00;5001422;28;20050;-78
2022/08/31 04:00:31;;;;;;;7.38;3.90;;;;;;;19.49;57.61;100642.38;5006334;28;20657;-78
2022/08/31 04:03:00;;;;;;;7.32;3.80;;;;;;;19.51;57.84;100651.22;5005377;28;20069;-76
2022/08/31 04:05:32;;;;;;;4.43;4.03;;;;;;;19.49;57.79;100640.59;5004297;28;20122;-75
2022/08/31 04:07:59;;;;;;;6.03;4.20;;;;;;;19.44;57.86;100639.22;5003887;28;20550;-75
2022/08/31 04:10:26;;;;;;;5.85;3.80;;;;;;;19.54;57.71;100643.75;5010316;28;20046;-77
2022/08/31 04:12:52;;;;;;;5.03;3.90;;;;;;;19.57;57.82;100658.75;5001641;28;20054;-76
2022/08/31 04:15:21;;;;;;;6.60;3.92;;;;;;;19.51;57.96;100657.44;5004276;28;20129;-77
2022/08/31 04:17:47;;;;;;;5.25;3.95;;;;;;;19.45;58.07;100643.59;5003140;28;20050;-77
2022/08/31 04:20:17;;;;;;;6.55;4.22;;;;;;;19.48;57.91;100643.38;5001491;28;20050;-76
2022/08/31 04:22:52;;;;;;;6.57;4.22;;;;;;;19.61;57.80;100663.78;5014764;28;20117;-73
2022/08/31 04:25:19;;;;;;;4.63;3.83;;;;;;;19.61;57.98;100665.59;5022699;28;20122;-72
2022/08/31 04:27:48;;;;;;;4.93;4.32;;;;;;;19.59;58.06;100668.41;5008784;28;20072;-76
2022/08/31 04:30:15;;;;;;;6.50;3.72;;;;;;;19.51;57.84;100653.91;5003853;28;20050;-75
2022/08/31 04:32:42;;;;;;;6.90;4.07;;;;;;;19.60;57.98;100663.91;5034442;28;20071;-76
2022/08/31 04:35:08;;;;;;;6.50;4.03;;;;;;;19.53;57.99;100651.91;5006136;28;20102;-74
2022/08/31 04:37:35;;;;;;;5.93;3.83;;;;;;;19.63;57.98;100666.34;4994821;28;20722;-75
2022/08/31 04:40:03;;;;;;;7.00;4.45;;;;;;;19.61;58.08;100666.47;4999290;28;20049;-76
2022/08/31 04:42:30;;;;;;;8.18;4.57;;;;;;;19.50;58.32;100636.94;5005831;28;20058;-76
2022/08/31 04:44:57;;;;;;;4.82;4.03;;;;;;;19.71;57.85;100663.88;5001065;28;20145;-74
2022/08/31 04:47:23;;;;;;;5.60;4.45;;;;;;;19.71;57.83;100671.94;4999421;28;20110;-76
2022/08/31 04:49:50;;;;;;;6.22;4.00;;;;;;;19.62;57.63;100648.50;5001113;28;20081;-76
2022/08/31 04:52:16;;;;;;;6.05;3.78;;;;;;;19.64;58.23;100660.00;5001026;28;20073;-76
2022/08/31 04:54:47;;;;;;;;;;;;;;;19.82;57.87;100685.38;5001805;28;20121;-77
2022/08/31 04:57:13;;;;;;;6.85;4.05;;;;;;;19.82;58.10;100679.16;5003897;28;19967;-78
2022/08/31 04:59:40;;;;;;;6.45;4.38;;;;;;;19.91;57.99;100683.78;5001492;28;20073;-77
2022/08/31 05:02:07;;;;;;;5.25;3.83;;;;;;;19.88;57.67;100674.13;5003900;28;20069;-78
2022/08/31 05:04:33;;;;;;;5.88;4.10;;;;;;;19.83;57.94;100673.63;5002062;28;20054;-75
2022/08/31 05:07:00;;;;;;;6.15;4.05;;;;;;;19.88;58.21;100689.38;5003478;28;20046;-77
2022/08/31 05:09:27;;;;;;;4.75;4.18;;;;;;;19.90;57.98;100690.97;5002063;28;20046;-76
2022/08/31 05:11:54;;;;;;;8.43;5.05;;;;;;;19.81;58.61;100694.44;5005250;28;20046;-75
2022/08/31 05:14:22;;;;;;;7.80;4.55;;;;;;;19.79;58.93;100696.38;5001583;28;20046;-76
2022/08/31 05:16:50;;;;;;;8.77;4.65;;;;;;;19.76;59.25;100696.63;5004711;28;20042;-76
2022/08/31 05:19:17;;;;;;;9.40;4.40;;;;;;;19.66;59.50;100689.44;5004522;28;20456;-76
2022/08/31 05:21:44;;;;;;;5.50;4.18;;;;;;;19.64;59.90;100705.66;5007337;28;20054;-75
2022/08/31 05:24:14;;;;;;;6.30;4.70;;;;;;;19.59;60.13;100689.06;5004820;28;20137;-77
2022/08/31 05:26:49;;;;;;;8.63;4.85;;;;;;;19.63;60.18;100700.41;5012515;28;20486;-75
2022/08/31 05:29:18;;;;;;;6.55;4.97;;;;;;;19.64;60.34;100707.50;4996531;28;20077;-74
2022/08/31 05:31:45;;;;;;;7.55;5.00;;;;;;;19.61;60.86;100704.06;4999031;28;20141;-76
2022/08/31 05:34:19;;;;;;;7.43;5.05;;;;;;;19.58;61.92;100706.13;4998439;28;20065;-76
2022/08/31 05:36:50;;;;;;;7.47;4.63;;;;;;;19.58;62.02;100706.13;4995147;28;20054;-79
2022/08/31 05:39:17;;;;;;;5.90;4.20;;;;;;;19.45;62.84;100713.44;4991699;28;20066;-77
2022/08/31 05:41:45;;;;;;;7.10;5.00;;;;;;;19.34;63.66;100721.50;5001281;28;20775;-77
2022/08/31 05:44:13;;;;;;;8.40;5.10;;;;;;;19.28;64.08;100717.44;5003147;28;20062;-75
2022/08/31 05:46:40;;;;;;;7.65;5.00;;;;;;;19.20;64.58;100718.03;5012584;28;20119;-77
2022/08/31 05:49:08;;;;;;;7.55;4.95;;;;;;;19.09;65.16;100711.78;5022011;28;20049;-75
2022/08/31 05:51:38;;;;;;;7.50;4.93;;;;;;;18.92;65.41;100689.78;5008665;28;20069;-75
2022/08/31 05:54:05;;;;;;;12.38;4.75;;;;;;;18.87;65.92;100683.09;5002154;28;20401;-76
2022/08/31 05:56:31;;;;;;;5.30;4.80;;;;;;;18.86;66.10;100700.16;4998280;28;20082;-78
2022/08/31 05:58:58;;;;;;;6.50;5.32;;;;;;;18.84;66.19;100710.16;4998230;28;20519;-78
2022/08/31 06:01:31;;;;;;;10.15;5.60;;;;;;;18.82;66.48;100714.78;5000312;28;20133;-78
2022/08/31 07:01:27;;;;;;;5.50;3.92;;;;;;;19.26;63.06;100738.19;4910972;29;20077;-74
2022/08/31 07:04:04;;;;;;;;;;;;;;;19.30;62.75;100742.34;4919073;29;20044;-76
2022/08/31 07:06:36;;;;;;;6.47;3.88;;;;;;;19.27;62.26;100742.56;4908478;29;20373;-75
2022/08/31 07:09:06;;;;;;;4.72;3.97;;;;;;;19.21;62.54;100735.84;4900132;29;20123;-75
2022/08/31 07:11:36;;;;;;;6.50;4.25;;;;;;;19.32;62.74;100750.28;4903272;29;20080;-78
2022/08/31 07:14:11;;;;;;;5.50;4.00;;;;;;;19.31;62.41;100740.50;4910843;29;20048;-76
2022/08/31 07:16:38;;;;;;;5.28;4.55;;;;;;;19.41;62.07;100757.63;4914208;29;20044;-77
2022/08/31 07:19:05;;;;;;;6.00;4.22;;;;;;;19.42;62.11;100749.44;4905278;29;20052;-76
2022/08/31 07:21:44;;;;;;;11.73;5.00;;;;;;;19.46;61.74;100758.97;4907681;29;20072;-77
2022/08/31 07:24:13;;;;;;;8.80;3.97;;;;;;;19.49;61.81;100758.78;4905745;29;20076;-80
2022/08/31 07:26:44;;;;;;;3.90;3.50;;;;;;;19.48;61.98;100762.41;4906753;29;20454;-74
2022/08/31 07:29:13;;;;;;;4.47;3.88;;;;;;;19.58;62.19;100767.94;4903326;29;20116;-77
2022/08/31 07:31:45;;;;;;;7.43;4.30;;;;;;;19.53;61.39;100738.72;4907035;29;20510;-77
2022/08/31 07:34:14;;;;;;;4.63;3.70;;;;;;;19.72;61.92;100761.47;4905663;29;20123;-78
2022/08/31 07:42:20;;;;;;;5.32;4.07;;;;;;;19.99;60.62;100772.69;4883715;29;20033;-75
2022/08/31 07:44:49;;;;;;;6.10;4.13;;;;;;;20.05;60.58;100774.03;4882167;29;20061;-75
2022/08/31 07:47:20;;;;;;;8.07;4.43;;;;;;;20.02;60.55;100764.38;4881326;29;20043;-75
2022/08/31 07:49:51;;;;;;;6.38;4.35;;;;;;;20.16;59.94;100784.78;4883252;29;20499;-78
2022/08/31 07:52:23;;;;;;;6.00;4.00;;;;;;;20.16;59.69;100780.25;4878201;29;20534;-77
2022/08/31 07:54:51;;;;;;;4.18;3.80;;;;;;;20.12;59.88;100780.66;4889768;29;20048;-76
2022/08/31 07:57:20;;;;;;;6.30;4.45;;;;;;;20.03;59.98;100767.94;4883119;29;20073;-76
2022/08/31 07:59:53;;;;;;;6.68;4.53;;;;;;;20.04;60.02;100764.25;4888037;29;20383;-79
2022/08/31 08:02:20;;;;;;;7.93;4.63;;;;;;;20.18;60.04;100778.31;4893271;29;20139;-77
2022/08/31 08:04:52;;;;;;;8.68;3.97;;;;;;;20.19;60.02;100782.69;4887515;29;20052;-79
2022/08/31 08:07:18;;;;;;;3.97;3.60;;;;;;;20.20;60.15;100792.47;4881882;29;20456;-76
2022/08/31 08:09:46;;;;;;;4.75;4.10;;;;;;;20.10;59.67;100778.09;4885380;29;20112;-77
2022/08/31 08:12:13;;;;;;;6.50;4.15;;;;;;;20.17;59.96;100797.25;4887488;29;20072;-77
2022/08/31 08:14:40;;;;;;;9.05;4.40;;;;;;;20.18;59.48;100799.81;4886035;29;20112;-75
2022/08/31 08:17:07;;;;;;;6.00;4.30;;;;;;;20.20;59.96;100797.00;4885221;29;20238;-75
2022/08/31 08:19:34;;;;;;;5.03;4.03;;;;;;;20.03;59.79;100776.00;4883254;29;20084;-74
2022/08/31 08:22:02;;;;;;;5.72;3.75;;;;;;;20.21;60.46;100802.25;4880945;29;20059;-76
2022/08/31 08:24:30;;;;;;;4.55;3.95;;;;;;;20.11;59.61;100781.63;4886097;29;20116;-72
2022/08/31 08:26:57;;;;;;;5.85;4.53;;;;;;;20.27;59.39;100811.69;4882682;29;20483;-75
2022/08/31 08:29:25;;;;;;;6.82;3.92;;;;;;;20.27;59.33;100812.53;4884809;29;20052;-76
2022/08/31 08:31:53;;;;;;;4.95;4.30;;;;;;;20.16;59.70;100804.47;4885018;29;20131;-75
2022/08/31 08:34:22;;;;;;;4.45;3.60;;;;;;;20.14;59.63;100806.44;4888309;29;20048;-75
2022/08/31 08:36:58;;;;;;;4.35;3.45;;;;;;;20.11;60.20;100808.50;4887293;29;20071;-79
2022/08/31 08:39:26;;;;;;;4.28;3.50;;;;;;;20.12;59.82;100816.47;4886480;29;20052;-75
2022/08/31 08:41:56;;;;;;;5.63;3.75;;;;;;;20.12;60.16;100810.22;4885199;29;20406;-79
2022/08/31 08:44:35;;;;;;;7.47;3.95;;;;;;;20.20;60.13;100815.81;4884894;29;20053;-76
2022/08/31 08:47:13;;;;;;;9.07;3.97;;;;;;;20.17;60.12;100818.75;4888523;29;20080;-79
2022/08/31 08:49:45;;;;;;;11.38;4.30;;;;;;;20.14;59.52;100816.34;4878125;29;20053;-76
2022/08/31 08:52:29;;;;;;;7.72;4.28;;;;;;;20.10;59.58;100817.56;4886963;29;20104;-77
2022/08/31 08:55:02;;;;;;;6.93;4.05;;;;;;;20.12;59.78;100811.09;4884212;29;20079;-78
2022/08/31 08:57:35;;;;;;;6.18;3.92;;;;;;;20.11;60.25;100811.19;4890223;29;20052;-75
2022/08/31 09:00:14;;;;;;;4.25;3.70;;;;;;;20.00;60.04;100797.75;4887270;29;20072;-77
2022/08/31 09:02:54;;;;;;;4.17;3.77;;;;;;;20.22;59.74;100824.63;4883278;29;20411;-79
2022/08/31 09:05:42;;;;;;;3.88;3.47;;;;;;;20.24;59.99;100822.69;4891297;29;20139;-75
2022/08/31 09:08:40;;;;;;;4.35;3.70;;;;;;;20.25;59.93;100814.50;4885068;29;20049;-76
2022/08/31 09:38:06;;;;;;;4.80;4.32;;;;;;;20.49;58.88;100816.19;5397762;23;20561;-76
2022/08/31 09:40:42;;;;;;;6.05;4.43;;;;;;;20.52;59.26;100818.63;4909059;29;20051;-78
2022/08/31 09:43:24;;;;;;;8.45;3.85;;;;;;;20.59;59.15;100825.22;4908198;29;20139;-75
2022/08/31 09:46:04;;;;;;;4.72;4.05;;;;;;;20.56;58.46;100810.19;4903200;29;20052;-74
2022/08/31 09:48:54;;;;;;;6.57;3.65;;;;;;;20.66;58.66;100823.72;4901138;29;20047;-76
2022/08/31 09:51:27;;;;;;;;;;;;;;;20.69;58.91;100819.94;4903313;29;20056;-76
2022/08/31 09:56:56;;;;;;;5.07;4.28;;;;;;;20.67;59.80;100818.22;4905551;29;20594;-76
2022/08/31 09:59:42;;;;;;;5.45;3.97;;;;;;;20.69;59.57;100819.94;4908674;29;20486;-77
2022/08/31 10:02:23;;;;;;;7.38;4.45;;;;;;;20.57;59.77;100801.16;4899030;29;20036;-76
2022/08/31 10:05:05;;;;;;;5.78;4.22;;;;;;;20.62;59.87;100800.75;4906553;29;20447;-75
2022/08/31 10:07:42;;;;;;;4.65;3.65;;;;;;;20.73;58.82;100807.94;4908853;29;20048;-75
2022/08/31 10:10:19;;;;;;;6.28;4.68;;;;;;;20.76;58.72;100821.16;4908021;29;20099;-77
2022/08/31 10:13:17;;;;;;;5.15;4.10;;;;;;;20.79;58.53;100818.19;4904878;29;20044;-77
2022/08/31 10:15:56;;;;;;;5.80;4.20;;;;;;;20.66;58.35;100800.38;4905872;29;20132;-77
2022/08/31 10:18:38;;;;;;;5.22;4.00;;;;;;;20.73;58.06;100799.88;4901998;29;20052;-75
2022/08/31 10:21:09;;;;;;;5.28;4.03;;;;;;;20.80;57.88;100803.75;4904088;29;20055;-76
2022/08/31 10:23:53;;;;;;;4.60;4.03;;;;;;;20.99;58.03;100822.78;4905003;29;21267;-75
2022/08/31 10:26:35;;;;;;;7.65;4.30;;;;;;;21.09;57.68;100812.97;4940757;29;20047;-77
2022/08/31 10:29:12;;;;;;;7.93;3.92;;;;;;;21.13;57.07;100800.94;4942232;28;20043;-74
2022/08/31 10:31:53;;;;;;;10.38;4.32;;;;;;;21.35;56.97;100817.00;4953943;28;20461;-76
2022/08/31 10:37:23;;;;;;;7.93;4.72;;;;;;;21.75;56.26;100813.56;4935688;28;20094;-76
2022/08/31 10:39:57;;;;;;;5.35;4.00;;;;;;;21.99;56.01;100810.59;4935601;28;20107;-75
2022/08/31 10:42:28;;;;;;;5.65;4.65;;;;;;;22.19;53.68;100814.25;4939082;28;20085;-73
2022/08/31 10:45:03;;;;;;;6.72;4.20;;;;;;;22.24;53.51;100809.28;4942538;28;20965;-77
2022/08/31 10:47:40;;;;;;;6.50;4.05;;;;;;;22.44;52.74;100808.34;4940650;28;20043;-75
2022/08/31 10:50:09;;;;;;;6.72;4.22;;;;;;;22.60;53.11;100813.22;4937624;28;20138;-76
2022/08/31 10:52:50;;;;;;;5.32;4.15;;;;;;;22.82;52.62;100817.56;4939506;28;20087;-75
2022/08/31 10:55:36;;;;;;;6.75;4.20;;;;;;;22.86;51.10;100794.66;4936646;28;20179;-76
2022/08/31 10:58:23;;;;;;;8.93;4.32;;;;;;;23.03;51.13;100804.75;4938969;28;20064;-77
2022/08/31 11:01:01;;;;;;;4.75;4.10;;;;;;;23.02;50.64;100795.81;4939988;28;20061;-78
2022/08/31 11:03:54;;;;;;;5.43;4.28;;;;;;;23.19;49.91;100798.78;4941793;28;20207;-75
2022/08/31 11:07:02;;;;;;;6.70;4.03;;;;;;;23.38;50.60;100805.03;4941913;28;20071;-75
2022/08/31 11:09:40;;;;;;;4.82;3.80;;;;;;;23.57;49.46;100803.34;4923320;28;20055;-74
2022/08/31 11:12:17;;;;;;;6.10;3.95;;;;;;;23.80;47.80;100799.25;4940286;28;20055;-77
2022/08/31 11:14:49;;;;;;;6.72;4.05;;;;;;;23.83;48.85;100809.78;4945700;28;20101;-78
2022/08/31 11:17:36;;;;;;;5.88;3.67;;;;;;;23.96;47.97;100804.06;4943217;28;20125;-73
2022/08/31 11:20:09;;;;;;;4.20;3.85;;;;;;;24.30;48.07;100801.66;4941340;28;20390;-72
2022/08/31 11:23:01;;;;;;;4.80;3.72;;;;;;;24.50;46.23;100805.13;4948887;28;20071;-74
2022/08/31 11:25:47;;;;;;;5.80;3.65;;;;;;;24.57;45.66;100793.50;4963090;28;20051;-74
2022/08/31 11:28:30;;;;;;;4.78;3.95;;;;;;;24.53;46.36;100778.59;4951329;28;20074;-76
2022/08/31 11:31:05;;;;;;;4.70;3.80;;;;;;;24.63;46.61;100792.06;4947831;28;20055;-77
2022/08/31 11:33:33;;;;;;;7.20;4.10;;;;;;;24.72;45.76;100796.53;4943779;28;20050;-75
2022/08/31 11:36:08;;;;;;;7.45;3.42;;;;;;;24.61;46.31;100794.91;4943396;28;20505;-74
2022/08/31 11:39:02;;;;;;;4.72;3.60;;;;;;;24.67;45.93;100785.34;4940638;28;20083;-75
2022/08/31 11:41:48;;;;;;;9.68;4.10;;;;;;;24.79;45.19;100797.66;4905989;28;20055;-76
2022/08/31 11:44:30;;;;;;;6.53;3.90;;;;;;;24.81;44.18;100790.22;4941902;28;20091;-73
2022/08/31 11:47:01;;;;;;;5.13;3.70;;;;;;;24.64;44.42;100791.06;4940329;28;20675;-75
2022/08/31 11:49:45;;;;;;;4.20;3.80;;;;;;;24.56;45.22;100785.53;4938382;28;20090;-75
2022/08/31 11:52:24;;;;;;;4.53;3.53;;;;;;;24.56;45.76;100786.38;4936966;28;20075;-74
2022/08/31 11:54:51;;;;;;;7.10;3.70;;;;;;;24.62;45.63;100780.38;4938798;28;20098;-76
2022/08/31 11:57:53;;;;;;;4.68;3.92;;;;;;;24.58;44.66;100770.84;4937265;28;20051;-75
2022/08/31 12:00:20;;;;;;;5.00;3.50;;;;;;;24.51;45.22;100777.91;4937292;28;20135;-76
2022/08/31 12:03:03;;;;;;;5.00;3.53;;;;;;;24.44;45.44;100757.84;4939709;28;20126;-78
2022/08/31 12:05:53;;;;;;;6.25;3.40;;;;;;;24.62;45.10;100757.84;4938587;28;20112;-77
2022/08/31 12:08:20;;;;;;;5.50;3.60;;;;;;;24.85;44.84;100766.38;4936179;28;20043;-77
2022/08/31 12:11:01;;;;;;;4.88;3.38;;;;;;;25.01;44.46;100775.56;4938126;28;20407;-75
2022/08/31 12:13:43;;;;;;;7.13;4.00;;;;;;;24.96;43.90;100777.00;4944749;28;20090;-76
2022/08/31 12:16:28;;;;;;;4.60;3.40;;;;;;;24.97;44.60;100774.16;4948169;28;20103;-76
2022/08/31 12:50:37;;;;;;;5.57;3.10;;;;;;;25.37;41.27;100765.50;5431613;23;20048;-76
2022/08/31 12:53:32;;;;;;;7.35;3.58;;;;;;;25.30;41.88;100744.63;4920061;28;20143;-76
2022/08/31 12:56:13;;;;;;;3.85;3.40;;;;;;;25.33;41.99;100753.28;4925158;28;20051;-74
2022/08/31 12:58:55;;;;;;;6.75;3.42;;;;;;;25.26;41.77;100757.63;4925643;29;20088;-74
2022/08/31 13:01:25;;;;;;;4.13;3.53;;;;;;;25.13;41.54;100741.78;4921332;28;20064;-73
2022/08/31 13:04:03;;;;;;;6.32;3.90;;;;;;;25.04;41.81;100755.41;4934610;28;20914;-80
2022/08/31 13:06:36;;;;;;;5.80;3.72;;;;;;;25.00;42.13;100752.19;4926547;29;20056;-79
2022/08/31 13:09:04;;;;;;;5.63;3.70;;;;;;;24.98;42.44;100761.47;4928869;29;20043;-77
2022/08/31 13:11:35;;;;;;;4.38;3.33;;;;;;;24.69;42.67;100715.63;4932884;29;20047;-75
2022/08/31 13:14:11;;;;;;;4.72;3.50;;;;;;;24.82;43.12;100733.19;4925418;29;20131;-76
2022/08/31 13:16:42;;;;;;;4.20;3.80;;;;;;;24.94;42.11;100730.25;4939645;29;20048;-78
2022/08/31 13:19:21;;;;;;;3.90;3.55;;;;;;;25.12;42.40;100744.63;4931387;29;20656;-72
2022/08/31 13:21:58;;;;;;;5.85;3.80;;;;;;;25.05;41.65;100743.56;4931001;28;20048;-79
2022/08/31 13:24:31;;;;;;;5.82;3.60;;;;;;;24.90;42.44;100743.22;4932389;29;20052;-76
2022/08/31 13:27:11;;;;;;;6.35;3.40;;;;;;;24.76;42.92;100722.09;4928347;29;20072;-74
2022/08/31 13:29:45;;;;;;;5.32;3.67;;;;;;;24.87;42.67;100718.34;4935075;29;20151;-80
2022/08/31 13:32:33;;;;;;;4.30;3.65;;;;;;;24.96;41.43;100729.09;4928274;29;20094;-80
2022/08/31 13:35:09;;;;;;;3.75;3.13;;;;;;;24.94;42.25;100727.56;4935805;28;20106;-72
2022/08/31 13:37:59;;;;;;;6.75;3.80;;;;;;;25.22;41.44;100712.84;4930175;29;20051;-79
2022/08/31 13:40:27;;;;;;;4.22;3.78;;;;;;;25.40;41.52;100716.38;4928433;29;20056;-76
2022/08/31 13:42:55;;;;;;;4.40;3.67;;;;;;;25.52;40.98;100716.94;4923671;28;20050;-76
2022/08/31 13:45:41;;;;;;;5.63;3.53;;;;;;;25.59;41.03;100709.03;4933938;28;20050;-76
2022/08/31 13:48:18;;;;;;;4.22;3.83;;;;;;;25.47;40.60;100708.47;4926175;29;20051;-76
2022/08/31 13:50:50;;;;;;;6.68;3.50;;;;;;;25.45;40.65;100719.47;4925727;29;20051;-76
2022/08/31 13:53:45;;;;;;;4.95;3.60;;;;;;;25.40;39.21;100713.66;4926968;28;20074;-76
2022/08/31 13:59:22;;;;;;;7.10;3.38;;;;;;;25.30;39.62;100709.38;4924171;28;20043;-75
2022/08/31 14:01:54;;;;;;;3.45;3.08;;;;;;;25.28;38.58;100709.53;4928082;28;20063;-76
2022/08/31 14:04:42;;;;;;;3.67;3.03;;;;;;;25.18;38.10;100700.66;4924861;29;20084;-76